sensor_id;sensor_type;location;lat;lon;timestamp;P1;durP1;ratioP1;P2;durP2;ratioP2
20456;SDS011;10387;51.102;6.848;2024-01-15T00:02:22;43.97;;;22.90;;
20456;SDS011;10387;51.102;6.848;2024-01-15T00:04:51;46.37;;;21.20;;
20456;SDS011;10387;51.102;6.848;2024-01-15T00:07:20;45.77;;;23.00;;
20456;SDS011;10387;51.102;6.848;2024-01-15T00:09:48;48.53;;;24.27;;
20456;SDS011;10387;51.102;6.848;2024-01-15T00:12:17;49.80;;;25.07;;
20456;SDS011;10387;51.102;6.848;2024-01-15T00:14:50;50.17;;;24.73;;
20456;SDS011;10387;51.102;6.848;2024-01-15T00:17:20;46.37;;;22.60;;
20456;SDS011;10387;51.102;6.848;2024-01-15T00:19:48;49.23;;;23.80;;
20456;SDS011;10387;51.102;6.848;2024-01-15T00:22:20;44.80;;;23.63;;
20456;SDS011;10387;51.102;6.848;2024-01-15T00:24:47;51.87;;;24.53;;
20456;SDS011;10387;51.102;6.848;2024-01-15T00:27:15;52.10;;;25.30;;
20456;SDS011;10387;51.102;6.848;2024-01-15T00:29:44;51.43;;;25.77;;
20456;SDS011;10387;51.102;6.848;2024-01-15T00:32:16;51.83;;;24.57;;
20456;SDS011;10387;51.102;6.848;2024-01-15T00:37:34;47.47;;;24.70;;
20456;SDS011;10387;51.102;6.848;2024-01-15T00:40:11;50.43;;;25.73;;
20456;SDS011;10387;51.102;6.848;2024-01-15T00:42:38;46.60;;;24.17;;
20456;SDS011;10387;51.102;6.848;2024-01-15T00:47:34;50.03;;;24.50;;
20456;SDS011;10387;51.102;6.848;2024-01-15T00:50:01;46.30;;;24.53;;
20456;SDS011;10387;51.102;6.848;2024-01-15T00:52:29;53.73;;;26.37;;
20456;SDS011;10387;51.102;6.848;2024-01-15T00:54:58;49.57;;;25.80;;
20456;SDS011;10387;51.102;6.848;2024-01-15T00:57:24;52.10;;;25.37;;
20456;SDS011;10387;51.102;6.848;2024-01-15T01:00:00;55.03;;;24.97;;
20456;SDS011;10387;51.102;6.848;2024-01-15T01:02:27;55.03;;;26.60;;
20456;SDS011;10387;51.102;6.848;2024-01-15T01:04:58;55.17;;;26.50;;
20456;SDS011;10387;51.102;6.848;2024-01-15T01:07:33;52.07;;;24.80;;
20456;SDS011;10387;51.102;6.848;2024-01-15T01:10:02;51.30;;;24.33;;
20456;SDS011;10387;51.102;6.848;2024-01-15T01:12:31;43.83;;;23.97;;
20456;SDS011;10387;51.102;6.848;2024-01-15T01:15:04;43.07;;;23.10;;
20456;SDS011;10387;51.102;6.848;2024-01-15T01:17:30;53.10;;;24.40;;
20456;SDS011;10387;51.102;6.848;2024-01-15T01:19:59;47.97;;;25.80;;
20456;SDS011;10387;51.102;6.848;2024-01-15T01:22:49;46.67;;;23.10;;
20456;SDS011;10387;51.102;6.848;2024-01-15T01:25:17;43.83;;;21.37;;
20456;SDS011;10387;51.102;6.848;2024-01-15T01:27:48;47.27;;;24.13;;
20456;SDS011;10387;51.102;6.848;2024-01-15T01:30:17;46.00;;;23.10;;
20456;SDS011;10387;51.102;6.848;2024-01-15T01:32:50;50.20;;;24.53;;
20456;SDS011;10387;51.102;6.848;2024-01-15T01:35:34;46.37;;;24.13;;
20456;SDS011;10387;51.102;6.848;2024-01-15T01:38:03;43.60;;;24.07;;
20456;SDS011;10387;51.102;6.848;2024-01-15T01:40:29;33.60;;;17.03;;
20456;SDS011;10387;51.102;6.848;2024-01-15T01:43:04;42.03;;;21.63;;
20456;SDS011;10387;51.102;6.848;2024-01-15T01:45:34;45.67;;;23.20;;
20456;SDS011;10387;51.102;6.848;2024-01-15T01:48:02;48.80;;;22.10;;
20456;SDS011;10387;51.102;6.848;2024-01-15T01:50:41;49.00;;;22.60;;
20456;SDS011;10387;51.102;6.848;2024-01-15T01:53:22;53.07;;;23.93;;
20456;SDS011;10387;51.102;6.848;2024-01-15T01:56:21;43.73;;;22.97;;
20456;SDS011;10387;51.102;6.848;2024-01-15T01:58:58;42.63;;;23.40;;
20456;SDS011;10387;51.102;6.848;2024-01-15T02:01:47;46.90;;;24.47;;
20456;SDS011;10387;51.102;6.848;2024-01-15T02:04:17;43.37;;;22.50;;
20456;SDS011;10387;51.102;6.848;2024-01-15T02:06:53;45.63;;;22.23;;
20456;SDS011;10387;51.102;6.848;2024-01-15T02:09:41;46.77;;;23.23;;
20456;SDS011;10387;51.102;6.848;2024-01-15T02:12:39;43.10;;;22.67;;
20456;SDS011;10387;51.102;6.848;2024-01-15T02:15:18;40.47;;;22.00;;
20456;SDS011;10387;51.102;6.848;2024-01-15T02:18:02;40.60;;;21.63;;
20456;SDS011;10387;51.102;6.848;2024-01-15T02:20:39;42.07;;;21.17;;
20456;SDS011;10387;51.102;6.848;2024-01-15T02:23:18;44.23;;;23.03;;
20456;SDS011;10387;51.102;6.848;2024-01-15T02:26:03;41.13;;;19.73;;
20456;SDS011;10387;51.102;6.848;2024-01-15T02:28:40;43.23;;;23.47;;
20456;SDS011;10387;51.102;6.848;2024-01-15T02:31:21;42.10;;;21.03;;
20456;SDS011;10387;51.102;6.848;2024-01-15T02:33:52;39.60;;;19.70;;
20456;SDS011;10387;51.102;6.848;2024-01-15T02:36:30;44.67;;;22.20;;
20456;SDS011;10387;51.102;6.848;2024-01-15T02:40:00;42.20;;;21.60;;
20456;SDS011;10387;51.102;6.848;2024-01-15T02:46:06;38.00;;;20.43;;
20456;SDS011;10387;51.102;6.848;2024-01-15T02:48:56;36.57;;;19.53;;
20456;SDS011;10387;51.102;6.848;2024-01-15T02:51:41;41.23;;;21.17;;
20456;SDS011;10387;51.102;6.848;2024-01-15T02:54:55;45.70;;;22.17;;
20456;SDS011;10387;51.102;6.848;2024-01-15T02:57:28;39.77;;;21.97;;
20456;SDS011;10387;51.102;6.848;2024-01-15T03:03:05;35.13;;;19.53;;
20456;SDS011;10387;51.102;6.848;2024-01-15T03:05:40;34.43;;;17.50;;
20456;SDS011;10387;51.102;6.848;2024-01-15T03:08:19;30.70;;;18.23;;
20456;SDS011;10387;51.102;6.848;2024-01-15T03:17:49;35.10;;;18.67;;
20456;SDS011;10387;51.102;6.848;2024-01-15T03:21:08;38.00;;;19.17;;
20456;SDS011;10387;51.102;6.848;2024-01-15T03:23:49;31.03;;;18.20;;
20456;SDS011;10387;51.102;6.848;2024-01-15T03:30:04;30.60;;;17.53;;
20456;SDS011;10387;51.102;6.848;2024-01-15T03:32:47;32.07;;;16.67;;
20456;SDS011;10387;51.102;6.848;2024-01-15T03:36:07;32.40;;;19.73;;
20456;SDS011;10387;51.102;6.848;2024-01-15T03:38:43;29.70;;;17.80;;
20456;SDS011;10387;51.102;6.848;2024-01-15T03:44:08;33.20;;;18.57;;
20456;SDS011;10387;51.102;6.848;2024-01-15T03:47:12;35.23;;;17.67;;
20456;SDS011;10387;51.102;6.848;2024-01-15T03:49:38;35.57;;;19.33;;
20456;SDS011;10387;51.102;6.848;2024-01-15T03:52:04;33.33;;;19.00;;
20456;SDS011;10387;51.102;6.848;2024-01-15T03:54:31;35.23;;;18.50;;
20456;SDS011;10387;51.102;6.848;2024-01-15T03:56:57;35.10;;;19.47;;
20456;SDS011;10387;51.102;6.848;2024-01-15T03:59:26;33.43;;;17.60;;
20456;SDS011;10387;51.102;6.848;2024-01-15T04:02:27;35.77;;;18.50;;
20456;SDS011;10387;51.102;6.848;2024-01-15T04:05:01;31.27;;;18.07;;
20456;SDS011;10387;51.102;6.848;2024-01-15T04:07:54;31.73;;;18.17;;
20456;SDS011;10387;51.102;6.848;2024-01-15T04:10:27;37.67;;;19.40;;
20456;SDS011;10387;51.102;6.848;2024-01-15T04:13:07;31.20;;;17.13;;
20456;SDS011;10387;51.102;6.848;2024-01-15T04:15:33;28.87;;;16.80;;
20456;SDS011;10387;51.102;6.848;2024-01-15T04:18:02;37.07;;;17.60;;
20456;SDS011;10387;51.102;6.848;2024-01-15T04:20:33;28.37;;;14.13;;
20456;SDS011;10387;51.102;6.848;2024-01-15T04:23:04;29.37;;;15.67;;
20456;SDS011;10387;51.102;6.848;2024-01-15T04:25:38;28.00;;;15.53;;
20456;SDS011;10387;51.102;6.848;2024-01-15T04:31:20;30.17;;;15.43;;
20456;SDS011;10387;51.102;6.848;2024-01-15T04:33:47;29.20;;;16.43;;
20456;SDS011;10387;51.102;6.848;2024-01-15T04:40:35;30.03;;;15.70;;
20456;SDS011;10387;51.102;6.848;2024-01-15T04:43:49;31.77;;;17.13;;
20456;SDS011;10387;51.102;6.848;2024-01-15T04:50:07;28.03;;;17.07;;
20456;SDS011;10387;51.102;6.848;2024-01-15T04:59:14;26.03;;;14.57;;
20456;SDS011;10387;51.102;6.848;2024-01-15T05:02:19;24.10;;;15.60;;
20456;SDS011;10387;51.102;6.848;2024-01-15T05:09:29;22.80;;;14.33;;
20456;SDS011;10387;51.102;6.848;2024-01-15T05:12:39;21.77;;;13.97;;
20456;SDS011;10387;51.102;6.848;2024-01-15T05:15:29;30.40;;;16.20;;
20456;SDS011;10387;51.102;6.848;2024-01-15T05:19:03;26.07;;;13.63;;
20456;SDS011;10387;51.102;6.848;2024-01-15T05:25:14;22.17;;;12.77;;
20456;SDS011;10387;51.102;6.848;2024-01-15T05:27:53;23.13;;;12.80;;
20456;SDS011;10387;51.102;6.848;2024-01-15T05:30:22;23.33;;;12.13;;
20456;SDS011;10387;51.102;6.848;2024-01-15T05:32:50;22.37;;;12.73;;
20456;SDS011;10387;51.102;6.848;2024-01-15T05:35:23;23.83;;;12.00;;
20456;SDS011;10387;51.102;6.848;2024-01-15T05:38:19;18.37;;;12.97;;
20456;SDS011;10387;51.102;6.848;2024-01-15T05:41:11;20.03;;;11.60;;
20456;SDS011;10387;51.102;6.848;2024-01-15T05:53:35;20.40;;;11.43;;
20456;SDS011;10387;51.102;6.848;2024-01-15T05:56:47;19.53;;;11.77;;
20456;SDS011;10387;51.102;6.848;2024-01-15T05:59:27;22.40;;;11.83;;
20456;SDS011;10387;51.102;6.848;2024-01-15T06:02:06;18.67;;;11.43;;
20456;SDS011;10387;51.102;6.848;2024-01-15T06:04:50;21.50;;;12.57;;
20456;SDS011;10387;51.102;6.848;2024-01-15T06:07:40;20.63;;;12.30;;
20456;SDS011;10387;51.102;6.848;2024-01-15T06:17:49;17.43;;;11.27;;
20456;SDS011;10387;51.102;6.848;2024-01-15T06:20:43;20.33;;;11.17;;
20456;SDS011;10387;51.102;6.848;2024-01-15T06:26:29;18.83;;;10.60;;
20456;SDS011;10387;51.102;6.848;2024-01-15T06:29:27;18.60;;;11.10;;
20456;SDS011;10387;51.102;6.848;2024-01-15T06:32:04;19.40;;;12.30;;
20456;SDS011;10387;51.102;6.848;2024-01-15T06:34:30;15.83;;;10.37;;
20456;SDS011;10387;51.102;6.848;2024-01-15T06:36:56;18.77;;;11.47;;
20456;SDS011;10387;51.102;6.848;2024-01-15T06:39:25;17.53;;;11.23;;
20456;SDS011;10387;51.102;6.848;2024-01-15T06:42:16;18.67;;;12.00;;
20456;SDS011;10387;51.102;6.848;2024-01-15T06:44:44;16.80;;;10.13;;
20456;SDS011;10387;51.102;6.848;2024-01-15T06:47:10;19.67;;;11.00;;
20456;SDS011;10387;51.102;6.848;2024-01-15T06:49:36;20.97;;;11.53;;
20456;SDS011;10387;51.102;6.848;2024-01-15T06:52:05;19.23;;;12.47;;
20456;SDS011;10387;51.102;6.848;2024-01-15T06:54:31;19.13;;;12.60;;
20456;SDS011;10387;51.102;6.848;2024-01-15T06:56:58;20.90;;;14.07;;
20456;SDS011;10387;51.102;6.848;2024-01-15T06:59:25;24.63;;;14.43;;
20456;SDS011;10387;51.102;6.848;2024-01-15T07:01:56;22.40;;;14.17;;
20456;SDS011;10387;51.102;6.848;2024-01-15T07:07:20;23.57;;;13.60;;
20456;SDS011;10387;51.102;6.848;2024-01-15T07:10:19;22.40;;;13.17;;
20456;SDS011;10387;51.102;6.848;2024-01-15T07:12:48;22.20;;;13.53;;
20456;SDS011;10387;51.102;6.848;2024-01-15T07:15:25;19.73;;;13.70;;
20456;SDS011;10387;51.102;6.848;2024-01-15T07:18:12;22.23;;;13.20;;
20456;SDS011;10387;51.102;6.848;2024-01-15T07:21:10;21.80;;;13.50;;
20456;SDS011;10387;51.102;6.848;2024-01-15T07:23:54;22.90;;;13.27;;
20456;SDS011;10387;51.102;6.848;2024-01-15T07:26:59;23.10;;;13.10;;
20456;SDS011;10387;51.102;6.848;2024-01-15T07:29:46;21.57;;;13.83;;
20456;SDS011;10387;51.102;6.848;2024-01-15T07:36:24;20.60;;;13.23;;
20456;SDS011;10387;51.102;6.848;2024-01-15T07:42:19;20.43;;;13.00;;
20456;SDS011;10387;51.102;6.848;2024-01-15T07:44:45;21.63;;;13.80;;
20456;SDS011;10387;51.102;6.848;2024-01-15T07:47:37;19.33;;;12.90;;
20456;SDS011;10387;51.102;6.848;2024-01-15T07:54:01;24.97;;;14.40;;
20456;SDS011;10387;51.102;6.848;2024-01-15T08:00:37;24.00;;;13.93;;
20456;SDS011;10387;51.102;6.848;2024-01-15T08:03:08;21.00;;;14.20;;
20456;SDS011;10387;51.102;6.848;2024-01-15T08:05:51;22.83;;;14.63;;
20456;SDS011;10387;51.102;6.848;2024-01-15T08:08:32;25.07;;;14.53;;
20456;SDS011;10387;51.102;6.848;2024-01-15T08:11:12;24.87;;;14.37;;
20456;SDS011;10387;51.102;6.848;2024-01-15T08:13:38;28.43;;;15.83;;
20456;SDS011;10387;51.102;6.848;2024-01-15T08:16:08;26.30;;;16.47;;
20456;SDS011;10387;51.102;6.848;2024-01-15T08:18:50;30.50;;;16.63;;
20456;SDS011;10387;51.102;6.848;2024-01-15T08:24:10;32.67;;;16.17;;
20456;SDS011;10387;51.102;6.848;2024-01-15T08:26:44;27.03;;;16.67;;
20456;SDS011;10387;51.102;6.848;2024-01-15T08:29:16;31.00;;;17.23;;
20456;SDS011;10387;51.102;6.848;2024-01-15T08:31:53;25.90;;;16.63;;
20456;SDS011;10387;51.102;6.848;2024-01-15T08:34:19;29.20;;;18.93;;
20456;SDS011;10387;51.102;6.848;2024-01-15T08:36:51;30.40;;;17.93;;
20456;SDS011;10387;51.102;6.848;2024-01-15T08:39:22;25.73;;;16.60;;
20456;SDS011;10387;51.102;6.848;2024-01-15T08:41:51;30.67;;;17.90;;
20456;SDS011;10387;51.102;6.848;2024-01-15T08:44:21;28.13;;;17.60;;
20456;SDS011;10387;51.102;6.848;2024-01-15T08:47:19;26.63;;;15.60;;
20456;SDS011;10387;51.102;6.848;2024-01-15T08:49:59;26.53;;;16.17;;
20456;SDS011;10387;51.102;6.848;2024-01-15T08:52:31;34.83;;;18.07;;
20456;SDS011;10387;51.102;6.848;2024-01-15T08:55:11;29.80;;;16.17;;
20456;SDS011;10387;51.102;6.848;2024-01-15T08:58:43;31.23;;;18.30;;
20456;SDS011;10387;51.102;6.848;2024-01-15T09:01:37;31.90;;;16.93;;
20456;SDS011;10387;51.102;6.848;2024-01-15T09:04:20;35.87;;;17.63;;
20456;SDS011;10387;51.102;6.848;2024-01-15T09:07:24;34.47;;;17.80;;
20456;SDS011;10387;51.102;6.848;2024-01-15T09:09:59;32.33;;;17.97;;
20456;SDS011;10387;51.102;6.848;2024-01-15T09:12:27;32.47;;;19.30;;
20456;SDS011;10387;51.102;6.848;2024-01-15T09:14:59;34.90;;;20.20;;
20456;SDS011;10387;51.102;6.848;2024-01-15T09:17:42;36.43;;;19.00;;
20456;SDS011;10387;51.102;6.848;2024-01-15T09:20:20;37.80;;;21.27;;
20456;SDS011;10387;51.102;6.848;2024-01-15T09:22:55;36.07;;;20.27;;
20456;SDS011;10387;51.102;6.848;2024-01-15T09:26:09;31.63;;;18.60;;
20456;SDS011;10387;51.102;6.848;2024-01-15T09:28:39;29.13;;;16.83;;
20456;SDS011;10387;51.102;6.848;2024-01-15T09:31:06;35.13;;;19.33;;
20456;SDS011;10387;51.102;6.848;2024-01-15T09:33:44;32.57;;;18.00;;
20456;SDS011;10387;51.102;6.848;2024-01-15T09:36:23;32.13;;;19.80;;
20456;SDS011;10387;51.102;6.848;2024-01-15T09:38:56;29.53;;;16.93;;
20456;SDS011;10387;51.102;6.848;2024-01-15T09:41:31;31.63;;;17.77;;
20456;SDS011;10387;51.102;6.848;2024-01-15T09:43:57;33.33;;;19.03;;
20456;SDS011;10387;51.102;6.848;2024-01-15T09:46:27;26.93;;;17.53;;
20456;SDS011;10387;51.102;6.848;2024-01-15T09:49:00;26.60;;;16.83;;
20456;SDS011;10387;51.102;6.848;2024-01-15T09:51:34;24.73;;;15.23;;
20456;SDS011;10387;51.102;6.848;2024-01-15T09:54:02;23.03;;;14.33;;
20456;SDS011;10387;51.102;6.848;2024-01-15T09:56:31;24.03;;;14.83;;
20456;SDS011;10387;51.102;6.848;2024-01-15T09:58:59;16.47;;;10.60;;
20456;SDS011;10387;51.102;6.848;2024-01-15T10:01:28;22.60;;;13.10;;
20456;SDS011;10387;51.102;6.848;2024-01-15T10:04:05;20.53;;;12.33;;
20456;SDS011;10387;51.102;6.848;2024-01-15T10:06:47;22.33;;;13.23;;
20456;SDS011;10387;51.102;6.848;2024-01-15T10:10:01;13.23;;;8.93;;
20456;SDS011;10387;51.102;6.848;2024-01-15T10:12:30;19.47;;;11.20;;
20456;SDS011;10387;51.102;6.848;2024-01-15T10:15:15;17.37;;;11.80;;
20456;SDS011;10387;51.102;6.848;2024-01-15T10:18:39;14.70;;;9.60;;
20456;SDS011;10387;51.102;6.848;2024-01-15T10:21:41;16.57;;;9.93;;
20456;SDS011;10387;51.102;6.848;2024-01-15T10:24:15;17.17;;;9.53;;
20456;SDS011;10387;51.102;6.848;2024-01-15T10:30:25;15.80;;;10.37;;
20456;SDS011;10387;51.102;6.848;2024-01-15T10:42:20;16.57;;;11.13;;
20456;SDS011;10387;51.102;6.848;2024-01-15T10:44:59;18.57;;;10.80;;
20456;SDS011;10387;51.102;6.848;2024-01-15T10:47:51;15.53;;;9.93;;
20456;SDS011;10387;51.102;6.848;2024-01-15T10:50:35;13.30;;;9.53;;
20456;SDS011;10387;51.102;6.848;2024-01-15T10:53:25;12.20;;;7.53;;
20456;SDS011;10387;51.102;6.848;2024-01-15T10:56:11;11.70;;;7.27;;
20456;SDS011;10387;51.102;6.848;2024-01-15T10:58:41;11.93;;;7.37;;
20456;SDS011;10387;51.102;6.848;2024-01-15T11:01:07;10.10;;;7.60;;
20456;SDS011;10387;51.102;6.848;2024-01-15T11:03:50;12.17;;;8.17;;
20456;SDS011;10387;51.102;6.848;2024-01-15T11:06:42;10.13;;;6.63;;
20456;SDS011;10387;51.102;6.848;2024-01-15T11:09:21;8.83;;;6.13;;
20456;SDS011;10387;51.102;6.848;2024-01-15T11:11:52;8.70;;;6.27;;
20456;SDS011;10387;51.102;6.848;2024-01-15T11:14:47;9.10;;;5.97;;
20456;SDS011;10387;51.102;6.848;2024-01-15T11:17:24;9.03;;;6.20;;
20456;SDS011;10387;51.102;6.848;2024-01-15T11:20:05;8.97;;;5.63;;
20456;SDS011;10387;51.102;6.848;2024-01-15T11:22:53;9.10;;;5.03;;
20456;SDS011;10387;51.102;6.848;2024-01-15T11:25:34;7.27;;;4.97;;
20456;SDS011;10387;51.102;6.848;2024-01-15T11:31:25;6.67;;;4.83;;
20456;SDS011;10387;51.102;6.848;2024-01-15T11:37:22;6.87;;;4.23;;
20456;SDS011;10387;51.102;6.848;2024-01-15T11:40:04;7.07;;;4.60;;
20456;SDS011;10387;51.102;6.848;2024-01-15T11:43:02;5.97;;;4.07;;
20456;SDS011;10387;51.102;6.848;2024-01-15T11:45:57;5.17;;;3.97;;
20456;SDS011;10387;51.102;6.848;2024-01-15T11:48:57;7.23;;;4.00;;
20456;SDS011;10387;51.102;6.848;2024-01-15T11:58:14;9.00;;;5.10;;
20456;SDS011;10387;51.102;6.848;2024-01-15T12:07:53;5.80;;;5.20;;
20456;SDS011;10387;51.102;6.848;2024-01-15T12:10:20;15.50;;;10.03;;
20456;SDS011;10387;51.102;6.848;2024-01-15T12:16:11;8.57;;;6.13;;
20456;SDS011;10387;51.102;6.848;2024-01-15T12:28:27;10.37;;;7.17;;
20456;SDS011;10387;51.102;6.848;2024-01-15T12:34:29;9.97;;;7.93;;
20456;SDS011;10387;51.102;6.848;2024-01-15T12:37:15;11.63;;;6.90;;
20456;SDS011;10387;51.102;6.848;2024-01-15T12:43:22;11.37;;;9.23;;
20456;SDS011;10387;51.102;6.848;2024-01-15T12:46:31;10.33;;;7.00;;
20456;SDS011;10387;51.102;6.848;2024-01-15T12:49:08;13.60;;;9.73;;
20456;SDS011;10387;51.102;6.848;2024-01-15T12:51:36;11.43;;;8.53;;
20456;SDS011;10387;51.102;6.848;2024-01-15T12:54:26;9.23;;;6.97;;
20456;SDS011;10387;51.102;6.848;2024-01-15T12:57:00;11.30;;;7.70;;
20456;SDS011;10387;51.102;6.848;2024-01-15T13:05:58;9.57;;;7.03;;
20456;SDS011;10387;51.102;6.848;2024-01-15T13:12:45;9.17;;;6.37;;
20456;SDS011;10387;51.102;6.848;2024-01-15T13:22:35;8.13;;;6.23;;
20456;SDS011;10387;51.102;6.848;2024-01-15T13:28:46;6.50;;;5.80;;
20456;SDS011;10387;51.102;6.848;2024-01-15T13:34:33;9.70;;;6.33;;
20456;SDS011;10387;51.102;6.848;2024-01-15T13:37:29;7.70;;;5.20;;
20456;SDS011;10387;51.102;6.848;2024-01-15T13:40:58;7.63;;;4.60;;
20456;SDS011;10387;51.102;6.848;2024-01-15T13:44:17;6.93;;;5.10;;
20456;SDS011;10387;51.102;6.848;2024-01-15T13:47:39;6.77;;;4.70;;
20456;SDS011;10387;51.102;6.848;2024-01-15T14:03:32;4.53;;;4.13;;
20456;SDS011;10387;51.102;6.848;2024-01-15T14:07:30;5.80;;;4.90;;
20456;SDS011;10387;51.102;6.848;2024-01-15T14:10:31;6.47;;;4.73;;
20456;SDS011;10387;51.102;6.848;2024-01-15T14:13:26;5.63;;;4.00;;
20456;SDS011;10387;51.102;6.848;2024-01-15T14:19:03;5.80;;;4.17;;
20456;SDS011;10387;51.102;6.848;2024-01-15T14:24:47;5.87;;;4.07;;
20456;SDS011;10387;51.102;6.848;2024-01-15T14:34:22;4.47;;;3.70;;
20456;SDS011;10387;51.102;6.848;2024-01-15T14:37:30;7.00;;;4.47;;
20456;SDS011;10387;51.102;6.848;2024-01-15T14:40:16;5.37;;;4.87;;
20456;SDS011;10387;51.102;6.848;2024-01-15T14:43:00;7.50;;;5.77;;
20456;SDS011;10387;51.102;6.848;2024-01-15T14:45:39;4.33;;;3.60;;
20456;SDS011;10387;51.102;6.848;2024-01-15T14:48:59;3.80;;;3.33;;
20456;SDS011;10387;51.102;6.848;2024-01-15T15:02:31;4.70;;;3.90;;
20456;SDS011;10387;51.102;6.848;2024-01-15T15:12:00;5.20;;;4.07;;
20456;SDS011;10387;51.102;6.848;2024-01-15T15:14:42;6.53;;;4.50;;
20456;SDS011;10387;51.102;6.848;2024-01-15T15:17:28;4.17;;;3.63;;
20456;SDS011;10387;51.102;6.848;2024-01-15T15:20:46;4.67;;;4.00;;
20456;SDS011;10387;51.102;6.848;2024-01-15T15:31:02;5.53;;;4.33;;
20456;SDS011;10387;51.102;6.848;2024-01-15T15:36:15;7.23;;;5.40;;
20456;SDS011;10387;51.102;6.848;2024-01-15T15:39:11;8.70;;;4.87;;
20456;SDS011;10387;51.102;6.848;2024-01-15T15:42:02;5.30;;;4.00;;
20456;SDS011;10387;51.102;6.848;2024-01-15T15:44:39;7.73;;;5.77;;
20456;SDS011;10387;51.102;6.848;2024-01-15T15:47:14;7.60;;;5.00;;
20456;SDS011;10387;51.102;6.848;2024-01-15T15:49:46;6.90;;;5.43;;
20456;SDS011;10387;51.102;6.848;2024-01-15T15:52:15;6.57;;;5.40;;
20456;SDS011;10387;51.102;6.848;2024-01-15T15:54:43;8.57;;;5.80;;
20456;SDS011;10387;51.102;6.848;2024-01-15T16:00:11;6.60;;;5.97;;
20456;SDS011;10387;51.102;6.848;2024-01-15T16:02:50;8.13;;;5.87;;
20456;SDS011;10387;51.102;6.848;2024-01-15T16:05:30;6.77;;;4.47;;
20456;SDS011;10387;51.102;6.848;2024-01-15T16:08:18;9.47;;;5.60;;
20456;SDS011;10387;51.102;6.848;2024-01-15T16:10:47;7.27;;;4.73;;
20456;SDS011;10387;51.102;6.848;2024-01-15T16:13:20;10.00;;;6.17;;
20456;SDS011;10387;51.102;6.848;2024-01-15T16:15:49;9.77;;;5.77;;
20456;SDS011;10387;51.102;6.848;2024-01-15T16:18:18;9.53;;;6.30;;
20456;SDS011;10387;51.102;6.848;2024-01-15T16:20:45;7.73;;;5.57;;
20456;SDS011;10387;51.102;6.848;2024-01-15T16:23:20;9.20;;;5.70;;
20456;SDS011;10387;51.102;6.848;2024-01-15T16:25:46;8.83;;;6.20;;
20456;SDS011;10387;51.102;6.848;2024-01-15T16:28:14;10.50;;;7.10;;
20456;SDS011;10387;51.102;6.848;2024-01-15T16:30:46;10.57;;;7.63;;
20456;SDS011;10387;51.102;6.848;2024-01-15T16:33:21;12.77;;;9.27;;
20456;SDS011;10387;51.102;6.848;2024-01-15T16:35:53;12.33;;;8.27;;
20456;SDS011;10387;51.102;6.848;2024-01-15T16:38:23;13.73;;;8.73;;
20456;SDS011;10387;51.102;6.848;2024-01-15T16:40:52;13.63;;;9.23;;
20456;SDS011;10387;51.102;6.848;2024-01-15T16:43:18;12.37;;;9.17;;
20456;SDS011;10387;51.102;6.848;2024-01-15T16:45:45;9.70;;;8.03;;
20456;SDS011;10387;51.102;6.848;2024-01-15T16:48:11;13.17;;;8.63;;
20456;SDS011;10387;51.102;6.848;2024-01-15T16:50:39;9.77;;;7.77;;
20456;SDS011;10387;51.102;6.848;2024-01-15T16:53:10;11.07;;;7.30;;
20456;SDS011;10387;51.102;6.848;2024-01-15T16:55:42;11.07;;;7.43;;
20456;SDS011;10387;51.102;6.848;2024-01-15T16:58:10;10.70;;;7.67;;
20456;SDS011;10387;51.102;6.848;2024-01-15T17:00:46;10.70;;;7.20;;
20456;SDS011;10387;51.102;6.848;2024-01-15T17:03:13;14.30;;;6.97;;
20456;SDS011;10387;51.102;6.848;2024-01-15T17:05:54;12.77;;;8.80;;
20456;SDS011;10387;51.102;6.848;2024-01-15T17:08:25;13.07;;;6.97;;
20456;SDS011;10387;51.102;6.848;2024-01-15T17:10:56;9.87;;;6.47;;
20456;SDS011;10387;51.102;6.848;2024-01-15T17:13:31;15.23;;;8.53;;
20456;SDS011;10387;51.102;6.848;2024-01-15T17:16:26;13.47;;;8.90;;
20456;SDS011;10387;51.102;6.848;2024-01-15T17:18:55;11.57;;;6.50;;
20456;SDS011;10387;51.102;6.848;2024-01-15T17:21:42;10.67;;;6.87;;
20456;SDS011;10387;51.102;6.848;2024-01-15T17:24:13;10.77;;;6.70;;
20456;SDS011;10387;51.102;6.848;2024-01-15T17:26:50;9.40;;;6.53;;
20456;SDS011;10387;51.102;6.848;2024-01-15T17:29:20;11.53;;;7.27;;
20456;SDS011;10387;51.102;6.848;2024-01-15T17:31:51;8.83;;;6.37;;
20456;SDS011;10387;51.102;6.848;2024-01-15T17:34:17;13.50;;;7.73;;
20456;SDS011;10387;51.102;6.848;2024-01-15T17:36:51;10.10;;;6.57;;
20456;SDS011;10387;51.102;6.848;2024-01-15T17:39:23;11.13;;;7.07;;
20456;SDS011;10387;51.102;6.848;2024-01-15T17:41:52;10.40;;;6.77;;
20456;SDS011;10387;51.102;6.848;2024-01-15T17:44:20;11.10;;;7.03;;
20456;SDS011;10387;51.102;6.848;2024-01-15T17:46:51;12.23;;;7.60;;
20456;SDS011;10387;51.102;6.848;2024-01-15T17:49:22;16.40;;;7.40;;
20456;SDS011;10387;51.102;6.848;2024-01-15T17:51:51;11.20;;;6.83;;
20456;SDS011;10387;51.102;6.848;2024-01-15T17:54:18;11.37;;;7.03;;
20456;SDS011;10387;51.102;6.848;2024-01-15T17:56:46;8.80;;;6.93;;
20456;SDS011;10387;51.102;6.848;2024-01-15T17:59:13;14.40;;;6.97;;
20456;SDS011;10387;51.102;6.848;2024-01-15T18:01:39;10.03;;;6.67;;
20456;SDS011;10387;51.102;6.848;2024-01-15T18:04:10;8.07;;;6.57;;
20456;SDS011;10387;51.102;6.848;2024-01-15T18:06:39;9.43;;;6.03;;
20456;SDS011;10387;51.102;6.848;2024-01-15T18:09:08;10.07;;;5.63;;
20456;SDS011;10387;51.102;6.848;2024-01-15T18:11:49;7.87;;;5.13;;
20456;SDS011;10387;51.102;6.848;2024-01-15T18:14:18;9.07;;;5.40;;
20456;SDS011;10387;51.102;6.848;2024-01-15T18:17:09;8.60;;;5.83;;
20456;SDS011;10387;51.102;6.848;2024-01-15T18:19:40;8.07;;;5.40;;
20456;SDS011;10387;51.102;6.848;2024-01-15T18:22:08;10.33;;;6.47;;
20456;SDS011;10387;51.102;6.848;2024-01-15T18:24:40;13.63;;;5.63;;
20456;SDS011;10387;51.102;6.848;2024-01-15T18:27:11;6.90;;;5.20;;
20456;SDS011;10387;51.102;6.848;2024-01-15T18:29:40;6.13;;;4.70;;
20456;SDS011;10387;51.102;6.848;2024-01-15T18:32:22;7.43;;;4.17;;
20456;SDS011;10387;51.102;6.848;2024-01-15T18:34:59;6.97;;;4.67;;
20456;SDS011;10387;51.102;6.848;2024-01-15T18:37:38;10.10;;;5.73;;
20456;SDS011;10387;51.102;6.848;2024-01-15T18:40:11;8.63;;;3.33;;
20456;SDS011;10387;51.102;6.848;2024-01-15T18:45:21;6.47;;;4.10;;
20456;SDS011;10387;51.102;6.848;2024-01-15T18:47:47;13.97;;;6.97;;
20456;SDS011;10387;51.102;6.848;2024-01-15T18:50:19;10.30;;;5.93;;
20456;SDS011;10387;51.102;6.848;2024-01-15T18:52:45;10.53;;;5.03;;
20456;SDS011;10387;51.102;6.848;2024-01-15T18:55:11;10.07;;;6.20;;
20456;SDS011;10387;51.102;6.848;2024-01-15T18:57:45;7.93;;;4.93;;
20456;SDS011;10387;51.102;6.848;2024-01-15T19:00:15;9.87;;;5.60;;
20456;SDS011;10387;51.102;6.848;2024-01-15T19:02:41;9.87;;;6.53;;
20456;SDS011;10387;51.102;6.848;2024-01-15T19:05:08;10.80;;;6.50;;
20456;SDS011;10387;51.102;6.848;2024-01-15T19:07:45;9.20;;;5.70;;
20456;SDS011;10387;51.102;6.848;2024-01-15T19:10:16;8.20;;;5.00;;
20456;SDS011;10387;51.102;6.848;2024-01-15T19:12:50;10.90;;;6.23;;
20456;SDS011;10387;51.102;6.848;2024-01-15T19:18:08;7.47;;;5.57;;
20456;SDS011;10387;51.102;6.848;2024-01-15T19:20:40;12.13;;;7.03;;
20456;SDS011;10387;51.102;6.848;2024-01-15T19:23:17;9.67;;;5.93;;
20456;SDS011;10387;51.102;6.848;2024-01-15T19:25:48;12.07;;;7.30;;
20456;SDS011;10387;51.102;6.848;2024-01-15T19:28:37;14.17;;;7.37;;
20456;SDS011;10387;51.102;6.848;2024-01-15T19:31:53;10.63;;;6.97;;